TAF

Looking Back 6 Hours

Worst Weather Category
LocationTimeVisiblityCeilingWeatherWind SpeedWind Gust
KPBF010535Z6NONENONE SSW 6NA NA

  • TAFPBF TAF KPBF 010535Z 0106/0206 28004KT P6SM SKC
          FM011500 20006KT P6SM SKC
          FM020000 18003KT P6SM SCT250 =